Aviation Digital Data Service (ADDS)

Output produced by METARs form (0337 UTC 24 February 2017)
found at http://www.aviationweather.gov/adds/metars/
 
OOSA 240250Z 25002KT 9999 BKN025 21/18 Q1016 NOSIG
TAF OOSA 232300Z 2400/2506 VRB03KT 9999 FEW020 SCT025 
     BECMG 2406/2408 17010KT 
     TEMPO 2410/2420 FEW025 
     BECMG 2415/2417 VRB03KT
       
OOMS 240250Z 26002KT 7000 NSC 21/19 Q1017 NOSIG
TAF OOMS 232300Z 2400/2506 22006KT 8000 NSC 
     TEMPO 2406/2415 04012KT 
     PROB30 
     TEMPO 2421/2503 VRB02KT 4500 BR BKN010